Главная страница
METAR-TAF:

METAR-TAF

Аэропорты :

Дакар, Сенегал

широта: 14-44N, долгота: 017-30W, высота над уровнем моря: 27 м

Текущие метеонаблюдения

Эта сводка был подготовлена 39 минут назад, в 03:00 UTC
Ветер 6 Узел от западный
Температура 26°C
Влажность 74%
Давление 1015 hPa
Видимость: 8000 м
небольшая облачность на высоте 1300 фута

METAR: GOOY 150300Z 28006KT 8000 FEW013 26/21 Q1015 NOSIG

Время: 03:39 (03:39 UTC)

Прогноз

Эта сводка был подготовлена 4 часа и 9 минут назад, в 23:30 UTC
Прогноз действительный с 15-го 00 UTC до 16-го 06 UTC
Ветер 12 Узел от северо-западный
Видимость 10 км и более
Отдельные облака на высоте 1300 фута

TAF: GOOY 142330Z 1500/1606 32012KT 9999 SCT013

Метеонаблюдения и прогнозы для более 4000 аэропортов (сводки METAR и TAF).

Имеющиеся станции представлены на карте желтыми и красными точками.

Чтобы увидеть название станции, наведите на нее мышь.

Затем щелкните, чтобы увидеть метеонаблюдения и метеопрогнозы.

Управление картой: чтобы увеличить масштаб, щелкните зеленые кнопки с черным крестиком; чтобы уменьшить масштаб, щелкните зеленую кнопку с тире; для просмотра соседних карт щелкайте зеленые стрелки.


METAR-TAF: